Time;durP1;ratioP1;P1;durP2;ratioP2;P2;SDS_P1;SDS_P2;PMS_P1;PMS_P2;Temp;Humidity;BMP_temperature;BMP_pressure;BME280_temperature;BME280_humidity;BME280_pressure;Samples;Min_cycle;Max_cycle;Signal;HPM_P1;HPM_P2
2022/03/02 00:00:50;;;;;;;208.10;118.13;;;1.30;1.00;;;;;;5079060;28;20047;-77
2022/03/02 00:03:17;;;;;;;205.65;112.93;;;1.30;1.00;;;;;;5076825;28;20090;-78
2022/03/02 00:05:45;;;;;;;207.13;116.47;;;1.20;1.00;;;;;;5064926;28;20120;-78
2022/03/02 00:08:13;;;;;;;211.02;114.20;;;1.10;1.00;;;;;;5055625;28;20462;-78
2022/03/02 00:10:40;;;;;;;210.52;112.93;;;1.10;1.00;;;;;;5060077;28;20080;-78
2022/03/02 00:13:09;;;;;;;196.10;105.85;;;1.10;1.00;;;;;;5042219;28;20081;-78
2022/03/02 00:15:37;;;;;;;193.88;102.45;;;1.10;1.00;;;;;;5082089;28;20373;-78
2022/03/02 00:18:04;;;;;;;189.25;101.00;;;1.00;1.00;;;;;;5054670;28;20058;-78
2022/03/02 00:20:32;;;;;;;202.82;104.05;;;1.00;1.00;;;;;;5067133;28;20107;-77
2022/03/02 00:23:00;;;;;;;183.30;97.80;;;0.90;1.00;;;;;;5060828;28;20044;-76
2022/03/02 00:25:28;;;;;;;197.20;102.38;;;0.90;1.00;;;;;;5057304;28;20049;-78
2022/03/02 00:27:55;;;;;;;201.65;103.28;;;0.80;1.00;;;;;;5066979;28;20051;-78
2022/03/02 00:30:28;;;;;;;204.18;102.85;;;0.90;1.00;;;;;;5066434;28;20130;-78
2022/03/02 00:32:55;;;;;;;192.55;101.60;;;0.90;1.00;;;;;;5039898;28;20060;-78
2022/03/02 00:35:23;;;;;;;205.98;107.10;;;0.80;1.00;;;;;;5078764;28;20040;-77
2022/03/02 00:37:51;;;;;;;208.70;111.78;;;0.80;1.00;;;;;;5063199;28;20503;-78
2022/03/02 00:40:19;;;;;;;207.38;107.28;;;0.80;1.00;;;;;;5050253;28;20489;-78
2022/03/02 00:42:46;;;;;;;213.07;107.15;;;0.80;1.00;;;;;;5078000;28;20044;-78
2022/03/02 00:45:14;;;;;;;197.93;105.25;;;0.80;1.00;;;;;;5078093;28;20032;-78
2022/03/02 00:47:43;;;;;;;217.68;107.47;;;0.80;1.00;;;;;;5076657;28;20060;-78
2022/03/02 00:50:12;;;;;;;198.18;100.85;;;0.80;1.00;;;;;;5058950;28;20056;-78
2022/03/02 00:52:41;;;;;;;194.13;99.15;;;0.90;95.40;;;;;;5080471;28;20041;-77
2022/03/02 00:55:09;;;;;;;189.38;94.45;;;1.00;99.90;;;;;;5063856;28;20041;-78
2022/03/02 00:57:36;;;;;;;173.35;87.72;;;1.10;99.90;;;;;;5067280;28;20044;-77
2022/03/02 01:00:06;;;;;;;189.07;89.22;;;1.10;1.00;;;;;;5069658;28;20052;-79
2022/03/02 01:02:34;;;;;;;179.68;90.32;;;1.10;1.00;;;;;;5077250;28;20052;-79
2022/03/02 01:05:03;;;;;;;180.40;89.40;;;1.10;1.00;;;;;;5060516;28;20078;-78
2022/03/02 01:07:30;;;;;;;178.90;89.60;;;1.20;1.00;;;;;;5076321;28;20037;-78
2022/03/02 01:09:58;;;;;;;187.95;94.18;;;1.10;1.00;;;;;;5078439;28;20106;-79
2022/03/02 01:12:25;;;;;;;179.52;91.30;;;1.10;1.00;;;;;;5076694;28;20528;-78
2022/03/02 01:14:53;;;;;;;179.77;89.22;;;1.00;1.00;;;;;;5075943;28;20127;-77
2022/03/02 01:17:21;;;;;;;177.95;90.10;;;1.00;1.00;;;;;;5079687;28;20055;-78
2022/03/02 01:19:49;;;;;;;181.13;89.80;;;0.90;1.00;;;;;;5065403;28;20124;-78
2022/03/02 01:22:19;;;;;;;166.88;82.90;;;0.90;1.00;;;;;;5073281;28;20044;-78
2022/03/02 01:24:46;;;;;;;165.90;82.43;;;0.90;1.00;;;;;;5092951;28;20123;-78
2022/03/02 01:27:15;;;;;;;167.27;82.90;;;1.00;1.00;;;;;;5075139;28;20053;-78
2022/03/02 01:29:43;;;;;;;165.60;85.65;;;1.00;1.00;;;;;;5076262;28;20071;-78
2022/03/02 01:32:11;;;;;;;170.90;85.90;;;1.10;1.00;;;;;;5093043;28;20044;-78
2022/03/02 01:34:39;;;;;;;157.88;83.68;;;1.20;1.00;;;;;;5093335;28;20101;-77
2022/03/02 01:37:06;;;;;;;153.90;80.13;;;1.20;1.00;;;;;;5092996;28;20041;-76
2022/03/02 01:39:35;;;;;;;157.63;83.10;;;1.10;1.00;;;;;;5093268;28;20052;-76
2022/03/02 01:42:05;;;;;;;174.40;90.13;;;1.10;1.00;;;;;;5075184;28;20060;-77
2022/03/02 01:44:33;;;;;;;168.60;92.00;;;1.10;1.00;;;;;;5088597;28;20042;-76
2022/03/02 01:47:00;;;;;;;172.95;91.97;;;1.00;99.90;;;;;;5078472;28;20057;-76
2022/03/02 01:49:28;;;;;;;178.52;91.78;;;1.00;99.90;;;;;;5082319;28;20079;-78
2022/03/02 01:51:56;;;;;;;190.75;96.30;;;0.90;99.90;;;;;;5053153;28;20052;-78
2022/03/02 01:54:23;;;;;;;183.93;97.70;;;0.90;99.90;;;;;;5075627;28;20116;-78
2022/03/02 01:56:53;;;;;;;185.05;97.97;;;0.90;1.00;;;;;;5058533;28;20384;-78
2022/03/02 01:59:20;;;;;;;175.40;93.82;;;1.00;1.00;;;;;;5078233;28;20079;-78
2022/03/02 02:01:49;;;;;;;165.73;85.93;;;1.00;1.00;;;;;;5077595;28;20076;-78
2022/03/02 02:04:16;;;;;;;183.52;96.63;;;1.00;1.00;;;;;;5078726;28;20048;-77
2022/03/02 02:06:44;;;;;;;191.73;98.03;;;1.00;99.90;;;;;;5084156;28;20038;-77
2022/03/02 02:09:11;;;;;;;183.20;95.50;;;0.90;99.90;;;;;;5079814;28;20103;-78
2022/03/02 02:11:38;;;;;;;189.80;98.40;;;0.90;99.90;;;;;;5059671;28;20044;-78
2022/03/02 02:14:07;;;;;;;181.10;92.82;;;0.90;99.90;;;;;;5077065;28;20547;-79
2022/03/02 02:16:35;;;;;;;173.45;92.30;;;0.80;99.90;;;;;;5058095;28;20048;-79
2022/03/02 02:19:02;;;;;;;164.38;85.68;;;0.70;99.90;;;;;;5076474;28;20068;-77
2022/03/02 02:21:31;;;;;;;157.43;84.63;;;0.70;99.90;;;;;;5076056;28;20041;-77
2022/03/02 02:23:59;;;;;;;160.82;83.85;;;0.70;99.90;;;;;;5075528;28;20040;-78
2022/03/02 02:26:27;;;;;;;136.43;74.07;;;0.70;99.90;;;;;;5075719;28;20101;-78
2022/03/02 02:28:57;;;;;;;126.50;68.85;;;0.70;1.00;;;;;;5057937;28;20143;-78
2022/03/02 02:31:25;;;;;;;127.68;67.80;;;0.70;1.00;;;;;;5076511;28;20131;-77
2022/03/02 02:33:52;;;;;;;128.88;69.28;;;0.60;1.00;;;;;;5076549;28;20036;-78
2022/03/02 02:36:20;;;;;;;135.38;69.63;;;0.70;99.90;;;;;;5057444;28;20044;-78
2022/03/02 02:38:49;;;;;;;152.10;74.15;;;0.60;99.90;;;;;;5056821;28;20048;-79
2022/03/02 02:41:18;;;;;;;190.20;85.57;;;0.60;99.90;;;;;;5060948;28;20530;-77
2022/03/02 02:43:47;;;;;;;177.15;87.00;;;0.60;99.90;;;;;;5091528;28;20100;-78
2022/03/02 02:46:15;;;;;;;172.95;85.65;;;0.60;1.00;;;;;;5057840;28;20036;-79
2022/03/02 02:48:43;;;;;;;165.48;78.15;;;0.60;1.00;;;;;;5076271;28;20041;-78
2022/03/02 02:51:10;;;;;;;158.20;74.82;;;0.60;1.00;;;;;;5058094;28;20048;-77
2022/03/02 02:53:38;;;;;;;201.65;89.35;;;0.60;1.00;;;;;;5077044;28;20047;-77
2022/03/02 02:56:07;;;;;;;234.80;105.20;;;0.60;1.00;;;;;;5056999;28;20435;-78
2022/03/02 02:58:35;;;;;;;247.30;103.20;;;0.60;1.00;;;;;;5074848;28;20047;-77
2022/03/02 03:01:03;;;;;;;214.25;93.85;;;0.60;1.00;;;;;;5057643;28;20059;-77
2022/03/02 03:03:31;;;;;;;226.07;94.85;;;0.60;1.00;;;;;;5075086;28;20051;-77
2022/03/02 03:05:59;;;;;;;214.88;97.32;;;0.60;1.00;;;;;;5075000;28;20124;-77
2022/03/02 03:08:26;;;;;;;217.13;94.70;;;0.60;1.00;;;;;;5080440;28;20040;-77
2022/03/02 03:10:54;;;;;;;238.02;103.55;;;0.70;1.00;;;;;;5062387;28;20210;-77
2022/03/02 03:13:23;;;;;;;258.65;99.78;;;0.70;1.00;;;;;;5075922;28;20037;-78
2022/03/02 03:15:53;;;;;;;239.05;99.22;;;0.80;1.00;;;;;;5057091;28;20048;-78
2022/03/02 03:18:21;;;;;;;275.45;103.03;;;0.60;1.00;;;;;;5079313;28;20044;-77
2022/03/02 03:20:49;;;;;;;256.88;101.72;;;0.60;1.00;;;;;;5078005;28;20412;-77
2022/03/02 03:23:16;;;;;;;277.55;106.63;;;0.70;1.00;;;;;;5079794;28;20044;-78
2022/03/02 03:25:44;;;;;;;261.40;105.03;;;0.70;1.00;;;;;;5061414;28;20045;-78
2022/03/02 03:28:11;;;;;;;250.98;100.95;;;0.70;1.00;;;;;;5080746;28;20048;-76
2022/03/02 03:30:40;;;;;;;262.27;104.18;;;0.80;1.00;;;;;;5080473;28;20044;-78
2022/03/02 03:33:07;;;;;;;253.15;99.43;;;0.70;1.00;;;;;;5061239;28;20135;-79
2022/03/02 03:35:35;;;;;;;227.10;97.45;;;0.70;1.00;;;;;;5080306;28;20029;-78
2022/03/02 03:38:03;;;;;;;187.82;82.55;;;0.80;1.00;;;;;;5080694;28;20067;-77
2022/03/02 03:40:31;;;;;;;158.02;74.70;;;0.90;1.00;;;;;;5078904;28;20119;-78
2022/03/02 03:42:59;;;;;;;148.85;71.30;;;1.00;1.00;;;;;;5079500;28;20068;-79
2022/03/02 03:45:27;;;;;;;166.70;75.18;;;1.00;1.00;;;;;;5065107;28;20235;-77
2022/03/02 03:47:56;;;;;;;196.30;84.88;;;1.10;99.90;;;;;;5086166;28;20067;-77
2022/03/02 03:50:24;;;;;;;201.48;87.40;;;1.00;99.90;;;;;;5083899;28;20045;-78
2022/03/02 03:52:51;;;;;;;226.85;90.57;;;1.00;99.90;;;;;;5080026;28;20044;-77
2022/03/02 03:55:19;;;;;;;239.98;95.63;;;1.10;99.90;;;;;;5078061;28;20044;-78
2022/03/02 03:57:47;;;;;;;248.68;96.65;;;1.10;99.90;;;;;;5079588;28;20431;-77
2022/03/02 04:00:18;;;;;;;220.75;92.90;;;1.00;99.90;;;;;;5059937;28;20510;-77
2022/03/02 04:02:46;;;;;;;216.90;88.75;;;1.00;99.90;;;;;;5059909;28;20522;-77
2022/03/02 04:05:15;;;;;;;204.30;84.70;;;1.00;99.90;;;;;;5060047;28;20055;-77
2022/03/02 04:07:44;;;;;;;171.82;75.32;;;1.00;99.90;;;;;;5078337;28;20089;-77
2022/03/02 04:10:13;;;;;;;211.02;87.18;;;1.00;99.90;;;;;;5041602;28;20048;-78
2022/03/02 04:12:40;;;;;;;195.18;85.13;;;1.00;99.90;;;;;;5041096;28;20045;-77
2022/03/02 04:15:09;;;;;;;173.52;76.43;;;1.00;99.90;;;;;;5041171;28;20124;-77
2022/03/02 04:17:36;;;;;;;165.88;74.72;;;1.00;99.90;;;;;;5041081;28;20061;-77
2022/03/02 04:20:05;;;;;;;170.52;75.78;;;1.10;99.90;;;;;;5039935;28;20061;-77
2022/03/02 04:22:34;;;;;;;181.30;76.38;;;1.10;42.50;;;;;;5060899;28;20572;-77
2022/03/02 04:25:02;;;;;;;151.13;65.97;;;1.00;1.00;;;;;;5059931;28;20520;-78
2022/03/02 04:27:29;;;;;;;129.25;61.38;;;1.00;1.00;;;;;;5077609;28;20040;-77
2022/03/02 04:29:57;;;;;;;124.30;56.08;;;1.00;1.00;;;;;;5059237;28;20056;-78
2022/03/02 04:32:24;;;;;;;120.05;56.55;;;1.00;1.00;;;;;;5077511;28;20484;-79
2022/03/02 04:34:52;;;;;;;117.30;54.67;;;1.00;1.00;;;;;;5051260;28;20060;-77
2022/03/02 04:37:19;;;;;;;125.88;58.13;;;1.00;1.00;;;;;;5051576;28;20048;-77
2022/03/02 04:39:48;;;;;;;120.40;56.90;;;1.10;1.00;;;;;;5061233;28;20389;-77
2022/03/02 04:42:16;;;;;;;132.68;61.88;;;1.10;1.00;;;;;;5078438;28;20048;-78
2022/03/02 04:44:44;;;;;;;136.32;60.05;;;1.00;1.00;;;;;;5079728;28;20094;-77
2022/03/02 04:47:11;;;;;;;144.60;63.92;;;0.90;1.00;;;;;;5061951;28;20385;-77
2022/03/02 04:49:39;;;;;;;130.55;61.97;;;0.80;1.00;;;;;;5079907;28;20050;-78
2022/03/02 04:52:07;;;;;;;139.50;64.95;;;0.80;1.00;;;;;;5077597;28;20037;-78
2022/03/02 04:57:21;;;;;;;160.38;70.90;;;0.70;1.00;;;;;;5070152;28;20423;-78
2022/03/02 04:59:48;;;;;;;201.13;85.32;;;0.70;1.00;;;;;;5078724;28;20043;-77
2022/03/02 05:02:17;;;;;;;216.82;89.82;;;0.70;1.00;;;;;;5078762;28;20058;-78
2022/03/02 05:04:44;;;;;;;237.48;92.65;;;0.60;1.00;;;;;;5067906;28;20049;-78
2022/03/02 05:07:12;;;;;;;204.18;84.22;;;0.60;1.00;;;;;;5051425;28;20479;-77
2022/03/02 05:09:39;;;;;;;260.92;98.78;;;0.60;1.00;;;;;;5059976;28;20098;-78
2022/03/02 05:12:08;;;;;;;267.98;103.88;;;0.60;1.00;;;;;;5051550;28;20075;-77
2022/03/02 05:14:37;;;;;;;285.48;108.53;;;0.60;1.00;;;;;;5079496;28;20094;-77
2022/03/02 05:17:06;;;;;;;300.88;112.40;;;0.60;60.90;;;;;;5068902;28;20122;-77
2022/03/02 05:19:34;;;;;;;277.40;107.13;;;0.70;99.90;;;;;;5068073;28;20491;-77
2022/03/02 05:22:01;;;;;;;283.05;109.47;;;0.70;99.90;;;;;;5057648;28;20057;-80
2022/03/02 05:24:29;;;;;;;286.98;107.90;;;0.70;99.90;;;;;;5059353;28;20036;-79
2022/03/02 05:26:56;;;;;;;312.52;116.97;;;0.70;99.90;;;;;;5060354;28;20044;-79
2022/03/02 05:29:24;;;;;;;307.60;117.07;;;0.70;99.90;;;;;;5047504;28;20045;-78
2022/03/02 05:31:53;;;;;;;329.88;122.10;;;0.70;99.90;;;;;;5039172;28;20041;-79
2022/03/02 05:34:20;;;;;;;332.17;121.22;;;0.80;99.90;;;;;;5056911;28;20048;-79
2022/03/02 05:36:48;;;;;;;312.58;118.13;;;0.90;1.00;;;;;;5058363;28;20104;-80
2022/03/02 05:39:15;;;;;;;314.52;116.82;;;0.90;99.90;;;;;;5050903;28;20072;-79
2022/03/02 05:41:43;;;;;;;314.90;117.93;;;1.00;99.90;;;;;;5060729;28;20060;-80
2022/03/02 05:44:11;;;;;;;316.55;117.57;;;1.10;99.90;;;;;;5058952;28;20072;-78
2022/03/02 05:46:39;;;;;;;311.63;115.97;;;1.10;99.90;;;;;;5053207;28;20041;-79
2022/03/02 05:49:08;;;;;;;323.65;119.22;;;1.20;99.90;;;;;;5051434;28;20045;-79
2022/03/02 05:51:36;;;;;;;296.02;110.45;;;1.30;99.90;;;;;;5040750;28;20042;-80
2022/03/02 05:54:05;;;;;;;234.43;93.57;;;1.40;99.90;;;;;;5041488;28;20041;-79
2022/03/02 05:56:32;;;;;;;206.15;86.00;;;1.50;1.00;;;;;;5057508;28;20069;-79
2022/03/02 05:59:01;;;;;;;198.32;86.22;;;1.40;1.00;;;;;;5059213;28;20045;-80
2022/03/02 06:01:28;;;;;;;205.30;86.85;;;1.40;1.00;;;;;;5052830;28;20056;-79
2022/03/02 06:03:56;;;;;;;210.88;85.25;;;1.40;1.00;;;;;;5061365;28;20136;-80
2022/03/02 06:06:24;;;;;;;220.48;91.57;;;1.40;1.00;;;;;;5061671;28;20453;-80
2022/03/02 06:08:52;;;;;;;217.18;89.60;;;1.40;1.00;;;;;;5058088;28;20565;-79
2022/03/02 06:11:20;;;;;;;268.70;108.85;;;1.40;1.00;;;;;;5057946;28;20048;-79
2022/03/02 06:13:48;;;;;;;278.08;114.32;;;1.30;99.90;;;;;;5050135;28;20076;-78
2022/03/02 06:16:16;;;;;;;328.23;129.02;;;1.30;99.90;;;;;;5072084;28;20072;-78
2022/03/02 06:18:44;;;;;;;287.50;114.80;;;1.30;1.00;;;;;;5055001;28;20049;-79
2022/03/02 06:21:16;;;;;;;295.55;123.70;;;1.50;1.00;;;;;;5075253;28;20044;-81
2022/03/02 06:23:46;;;;;;;256.88;108.72;;;1.50;1.00;;;;;;5061712;28;20040;-78
2022/03/02 06:26:14;;;;;;;230.73;97.28;;;1.60;1.00;;;;;;5077381;28;20066;-79
2022/03/02 06:28:41;;;;;;;231.20;100.70;;;1.70;1.00;;;;;;5077427;28;20044;-79
2022/03/02 06:31:09;;;;;;;243.27;105.75;;;1.70;99.90;;;;;;5050255;28;20052;-80
2022/03/02 06:33:37;;;;;;;254.43;98.60;;;1.80;99.90;;;;;;5056428;28;20074;-78
2022/03/02 06:36:05;;;;;;;231.93;94.95;;;1.80;99.90;;;;;;5038865;28;20484;-78
2022/03/02 06:38:32;;;;;;;219.98;94.00;;;1.80;99.90;;;;;;5071115;28;20037;-78
2022/03/02 06:41:04;;;;;;;253.10;102.72;;;1.80;99.90;;;;;;5061107;28;20044;-79
2022/03/02 06:43:35;;;;;;;292.50;120.70;;;1.80;99.90;;;;;;5071476;28;20059;-77
2022/03/02 06:46:08;;;;;;;307.48;128.50;;;1.80;99.90;;;;;;5075727;28;20036;-79
2022/03/02 06:48:43;;;;;;;362.77;143.00;;;1.80;99.90;;;;;;5068144;28;20055;-80
2022/03/02 06:51:15;;;;;;;278.98;118.22;;;1.80;99.90;;;;;;5074301;28;20051;-78
2022/03/02 06:53:46;;;;;;;172.32;84.70;;;1.90;99.90;;;;;;5083128;28;20123;-78
2022/03/02 06:56:17;;;;;;;167.60;85.18;;;2.10;99.90;;;;;;5078714;28;20042;-77
2022/03/02 06:58:50;;;;;;;170.35;87.40;;;2.30;99.90;;;;;;5068842;28;20075;-79
2022/03/02 07:01:25;;;;;;;334.73;142.93;;;2.60;99.90;;;;;;5086135;28;20205;-81
2022/03/02 07:03:57;;;;;;;381.95;156.68;;;2.70;50.00;;;;;;5073253;28;20072;-79
2022/03/02 07:06:26;;;;;;;368.10;157.98;;;2.70;1.00;;;;;;5065837;28;20044;-78
2022/03/02 07:08:54;;;;;;;346.55;150.55;;;2.70;1.00;;;;;;5065790;28;20055;-77
2022/03/02 07:11:25;;;;;;;355.27;150.02;;;2.70;1.00;;;;;;5065553;28;20121;-78
2022/03/02 07:13:52;;;;;;;330.55;145.82;;;2.80;1.00;;;;;;5085938;28;20045;-78
2022/03/02 07:16:21;;;;;;;288.42;126.47;;;2.80;1.00;;;;;;5084331;28;20152;-79
2022/03/02 07:18:50;;;;;;;274.65;121.32;;;2.90;1.00;;;;;;5064430;28;20060;-79
2022/03/02 07:21:22;;;;;;;300.08;134.95;;;3.00;1.00;;;;;;5078474;28;20040;-78
2022/03/02 07:23:56;;;;;;;251.98;113.78;;;3.10;1.00;;;;;;5060710;28;20075;-79
2022/03/02 07:26:26;;;;;;;235.10;107.60;;;3.20;1.00;;;;;;5079610;28;20043;-80
2022/03/02 07:28:56;;;;;;;220.18;104.20;;;3.30;1.00;;;;;;5080024;28;20364;-79
2022/03/02 07:31:24;;;;;;;241.40;110.15;;;3.60;1.00;;;;;;5062060;28;20518;-79
2022/03/02 07:33:53;;;;;;;234.57;109.25;;;3.80;1.00;;;;;;5080456;28;20408;-79
2022/03/02 07:36:22;;;;;;;231.38;109.85;;;3.80;1.00;;;;;;5061514;28;20387;-81
2022/03/02 07:38:50;;;;;;;225.88;108.00;;;3.90;1.00;;;;;;5080279;28;20387;-79
2022/03/02 07:41:17;;;;;;;255.00;118.00;;;3.80;1.00;;;;;;5079537;28;20411;-78
2022/03/02 07:43:47;;;;;;;259.10;118.82;;;3.90;1.00;;;;;;5079227;28;20048;-80
2022/03/02 07:46:15;;;;;;;252.05;120.80;;;3.80;1.00;;;;;;5078300;28;20040;-80
2022/03/02 07:48:43;;;;;;;259.50;124.50;;;4.00;1.00;;;;;;5066177;28;20055;-80
2022/03/02 07:51:10;;;;;;;255.50;121.40;;;4.20;1.00;;;;;;5078342;28;20128;-76
2022/03/02 07:53:41;;;;;;;215.05;103.35;;;4.20;99.90;;;;;;5068022;28;20470;-78
2022/03/02 07:56:10;;;;;;;214.55;105.13;;;4.20;99.90;;;;;;5066458;28;20040;-78
2022/03/02 07:58:39;;;;;;;222.10;106.68;;;4.20;99.90;;;;;;5078463;28;20044;-78
2022/03/02 08:01:13;;;;;;;214.10;107.57;;;4.50;99.90;;;;;;5059750;28;20051;-79
2022/03/02 08:03:43;;;;;;;191.00;97.47;;;4.90;99.90;;;;;;5067822;28;20041;-79
2022/03/02 08:06:11;;;;;;;205.40;99.13;;;5.40;99.90;;;;;;5060664;28;20045;-78
2022/03/02 08:08:39;;;;;;;205.20;96.57;;;5.70;99.90;;;;;;5078009;28;20403;-79
2022/03/02 08:11:07;;;;;;;193.25;94.72;;;5.90;99.90;;;;;;5060893;28;20136;-79
2022/03/02 08:13:37;;;;;;;208.80;95.90;;;5.90;99.90;;;;;;5057129;28;20079;-78
2022/03/02 08:16:05;;;;;;;180.57;83.45;;;6.00;99.90;;;;;;5040755;28;20049;-79
2022/03/02 08:18:34;;;;;;;189.32;87.05;;;6.00;99.90;;;;;;5060559;28;20041;-78
2022/03/02 08:21:04;;;;;;;174.65;85.40;;;5.80;99.90;;;;;;5044853;28;20059;-78
2022/03/02 08:23:38;;;;;;;176.68;81.00;;;5.60;99.90;;;;;;5059707;28;20037;-80
2022/03/02 08:26:06;;;;;;;160.25;78.10;;;5.50;99.90;;;;;;5076705;28;20057;-78
2022/03/02 08:28:35;;;;;;;175.63;81.32;;;5.30;99.90;;;;;;5043467;28;20579;-79
2022/03/02 08:31:03;;;;;;;177.77;81.53;;;5.20;99.90;;;;;;5069687;28;20044;-79
2022/03/02 08:33:35;;;;;;;170.18;82.90;;;5.40;99.90;;;;;;5067797;28;20040;-79
2022/03/02 08:36:04;;;;;;;175.07;84.95;;;5.50;99.90;;;;;;5057356;28;20055;-77
2022/03/02 08:38:35;;;;;;;185.77;89.85;;;5.40;99.90;;;;;;5076073;28;20024;-78
2022/03/02 08:41:03;;;;;;;184.02;89.35;;;5.40;99.90;;;;;;5076295;28;20052;-77
2022/03/02 08:43:31;;;;;;;161.98;78.63;;;5.40;99.90;;;;;;5058490;28;20040;-78
2022/03/02 08:45:59;;;;;;;157.57;77.93;;;5.20;99.90;;;;;;5067222;28;20493;-76
2022/03/02 08:48:26;;;;;;;143.25;67.00;;;4.90;99.90;;;;;;5059513;28;20032;-78
2022/03/02 08:50:58;;;;;;;138.70;67.32;;;5.00;99.90;;;;;;5076439;28;20037;-79
2022/03/02 08:53:27;;;;;;;130.15;65.80;;;5.10;99.90;;;;;;5081144;28;20037;-78
2022/03/02 08:55:58;;;;;;;122.10;60.75;;;5.50;99.90;;;;;;5084509;28;20074;-78
2022/03/02 08:58:27;;;;;;;118.25;55.95;;;5.60;99.90;;;;;;5085215;28;20037;-77
2022/03/02 09:00:55;;;;;;;116.65;55.63;;;6.00;99.90;;;;;;5077965;28;20036;-79
2022/03/02 09:03:24;;;;;;;118.28;54.63;;;6.20;99.90;;;;;;5061396;28;20040;-80
2022/03/02 09:05:52;;;;;;;106.35;54.35;;;6.30;99.90;;;;;;5065436;28;20079;-78
2022/03/02 09:08:21;;;;;;;101.40;51.00;;;6.40;99.90;;;;;;5075443;28;20045;-78
2022/03/02 09:10:49;;;;;;;84.20;45.53;;;6.40;93.40;;;;;;5076078;28;20147;-77
2022/03/02 09:13:16;;;;;;;80.57;40.92;;;6.50;99.90;;;;;;5078108;28;20053;-80
2022/03/02 09:15:44;;;;;;;82.88;41.42;;;6.70;74.20;;;;;;5065039;28;20041;-80
2022/03/02 09:18:11;;;;;;;80.93;41.97;;;6.70;42.20;;;;;;5089222;28;20039;-79
2022/03/02 09:20:43;;;;;;;66.72;36.70;;;6.50;60.10;;;;;;5068808;28;20055;-78
2022/03/02 09:23:12;;;;;;;73.25;39.05;;;6.20;39.50;;;;;;5059397;28;20049;-79
2022/03/02 09:25:42;;;;;;;74.43;36.97;;;6.00;29.60;;;;;;5076727;28;20052;-78
2022/03/02 09:28:11;;;;;;;61.38;34.90;;;6.10;30.90;;;;;;5057724;28;20071;-80
2022/03/02 09:30:41;;;;;;;63.20;35.45;;;6.00;32.00;;;;;;5060093;28;20044;-79
2022/03/02 09:33:15;;;;;;;63.10;33.50;;;6.10;30.00;;;;;;5081230;28;20064;-78
2022/03/02 09:35:44;;;;;;;69.90;37.42;;;6.10;18.00;;;;;;5062692;28;20052;-77
2022/03/02 09:38:12;;;;;;;66.20;36.08;;;5.90;27.10;;;;;;5061406;28;20153;-79
2022/03/02 09:40:44;;;;;;;60.97;35.78;;;5.80;21.80;;;;;;5084750;28;20068;-79
2022/03/02 09:43:19;;;;;;;60.03;35.08;;;5.80;27.60;;;;;;5081211;28;20044;-80
2022/03/02 09:45:51;;;;;;;67.15;38.38;;;5.70;25.00;;;;;;5074370;28;20071;-78
2022/03/02 09:48:29;;;;;;;75.20;39.03;;;5.80;30.00;;;;;;5073275;28;20040;-78
2022/03/02 09:51:00;;;;;;;61.22;36.38;;;6.00;57.50;;;;;;5083450;28;20040;-77
2022/03/02 09:53:29;;;;;;;80.93;44.65;;;6.00;25.50;;;;;;5089173;28;20048;-77
2022/03/02 09:56:02;;;;;;;85.18;46.70;;;5.90;38.80;;;;;;5069666;28;20124;-78
2022/03/02 09:58:30;;;;;;;81.82;46.20;;;5.80;42.40;;;;;;5085273;28;20033;-78
2022/03/02 10:00:59;;;;;;;78.82;47.97;;;5.70;46.60;;;;;;5074350;28;20044;-77
2022/03/02 10:03:32;;;;;;;78.80;44.83;;;5.80;50.70;;;;;;5068257;28;20087;-80
2022/03/02 10:06:04;;;;;;;81.35;47.40;;;6.00;29.50;;;;;;5076137;28;20047;-78
2022/03/02 10:08:35;;;;;;;73.20;44.53;;;6.10;35.80;;;;;;5070266;28;20129;-79
2022/03/02 10:11:06;;;;;;;71.68;40.53;;;6.10;44.70;;;;;;5071808;28;20052;-79
2022/03/02 10:13:34;;;;;;;76.45;44.90;;;6.00;28.40;;;;;;5070082;28;20440;-78
2022/03/02 10:16:04;;;;;;;73.40;41.10;;;5.90;33.60;;;;;;5055425;28;20049;-79
2022/03/02 10:18:36;;;;;;;73.78;44.22;;;5.80;30.00;;;;;;5076192;28;20044;-77
2022/03/02 10:21:05;;;;;;;80.55;45.47;;;5.70;35.60;;;;;;5077623;28;20045;-78
2022/03/02 10:23:40;;;;;;;73.78;43.28;;;5.80;30.90;;;;;;5074219;28;20503;-78
2022/03/02 10:26:16;;;;;;;73.18;42.22;;;5.80;45.60;;;;;;5053078;28;20051;-79
2022/03/02 10:28:53;;;;;;;70.80;42.35;;;6.00;55.70;;;;;;5057440;28;20049;-79
2022/03/02 10:31:41;;;;;;;93.15;47.08;;;6.10;35.00;;;;;;5056156;28;20048;-80
2022/03/02 10:34:32;;;;;;;64.85;38.25;;;6.30;27.10;;;;;;5066073;28;20037;-80
2022/03/02 10:37:19;;;;;;;56.95;36.45;;;6.50;12.10;;;;;;5068998;28;20475;-80
2022/03/02 10:39:54;;;;;;;64.13;36.80;;;6.60;59.00;;;;;;5031142;28;20109;-77
2022/03/02 10:42:29;;;;;;;57.60;36.92;;;6.80;39.50;;;;;;5076546;28;20049;-80
2022/03/02 10:45:10;;;;;;;58.88;35.30;;;6.70;78.80;;;;;;5077045;28;20086;-78
2022/03/02 10:47:43;;;;;;;54.50;33.47;;;6.70;72.40;;;;;;5057077;28;20055;-78
2022/03/02 10:50:11;;;;;;;60.38;34.60;;;6.70;94.80;;;;;;5064509;28;20037;-79
2022/03/02 10:52:41;;;;;;;55.08;33.45;;;6.80;49.30;;;;;;5048142;28;20052;-78
2022/03/02 10:55:11;;;;;;;55.65;33.45;;;6.80;74.10;;;;;;5077186;28;20070;-78
2022/03/02 10:57:40;;;;;;;49.25;30.15;;;6.80;78.30;;;;;;5059747;28;20045;-78
2022/03/02 11:00:12;;;;;;;50.15;31.63;;;6.60;42.60;;;;;;5058026;28;20112;-78
2022/03/02 11:02:42;;;;;;;47.70;30.70;;;6.50;93.20;;;;;;5071435;28;20047;-77
2022/03/02 11:05:15;;;;;;;41.83;28.40;;;6.60;83.20;;;;;;5075064;28;20056;-78
2022/03/02 11:07:43;;;;;;;44.92;29.10;;;6.70;46.80;;;;;;5074004;28;20404;-79
2022/03/02 11:10:12;;;;;;;52.45;32.60;;;6.70;62.20;;;;;;5074582;28;20033;-79
2022/03/02 11:12:43;;;;;;;46.50;28.75;;;6.80;22.80;;;;;;5075619;28;20066;-79
2022/03/02 11:15:12;;;;;;;47.60;29.45;;;7.10;49.10;;;;;;5047848;28;20570;-79
2022/03/02 11:17:53;;;;;;;44.15;28.38;;;7.10;68.20;;;;;;5076820;28;20056;-79
2022/03/02 11:20:21;;;;;;;41.63;27.75;;;7.10;81.10;;;;;;5069045;28;20139;-79
2022/03/02 11:22:55;;;;;;;48.80;30.75;;;7.10;45.00;;;;;;5072874;28;20075;-78
2022/03/02 11:25:46;;;;;;;47.72;30.17;;;7.20;74.20;;;;;;5071598;28;20037;-79
2022/03/02 11:28:18;;;;;;;46.03;29.95;;;7.40;64.30;;;;;;5077057;28;20033;-79
2022/03/02 11:30:51;;;;;;;43.75;28.73;;;7.50;82.10;;;;;;5072011;28;20116;-79
2022/03/02 11:33:23;;;;;;;45.10;29.67;;;7.60;59.40;;;;;;5082587;28;20102;-78
2022/03/02 11:35:53;;;;;;;35.13;23.85;;;7.70;60.90;;;;;;5086716;28;20048;-77
2022/03/02 11:38:24;;;;;;;40.42;27.50;;;7.70;44.30;;;;;;5086768;28;20525;-79
2022/03/02 11:40:52;;;;;;;36.78;26.05;;;7.90;29.20;;;;;;5089059;28;20096;-78
2022/03/02 11:43:25;;;;;;;39.75;25.42;;;7.70;62.90;;;;;;5076325;28;20050;-78
2022/03/02 11:45:56;;;;;;;39.40;26.40;;;7.50;67.40;;;;;;5070116;28;20053;-78
2022/03/02 11:48:26;;;;;;;36.38;25.15;;;7.60;68.20;;;;;;5085805;28;20041;-77
2022/03/02 11:51:09;;;;;;;42.65;26.75;;;7.70;75.80;;;;;;5063908;28;20471;-80
2022/03/02 11:53:39;;;;;;;35.20;24.35;;;7.90;79.70;;;;;;5064480;28;20160;-81
2022/03/02 11:56:08;;;;;;;37.00;24.48;;;8.10;99.90;;;;;;5083291;28;20135;-81
2022/03/02 11:59:05;;;;;;;39.55;25.88;;;8.10;99.90;;;;;;5064016;28;20047;-80
2022/03/02 12:01:44;;;;;;;44.22;26.67;;;8.40;99.90;;;;;;5081853;28;20083;-78
2022/03/02 12:04:14;;;;;;;39.25;24.80;;;8.50;98.80;;;;;;5081258;28;20067;-79
2022/03/02 12:06:47;;;;;;;34.13;22.30;;;8.60;96.00;;;;;;5064018;28;20051;-80
2022/03/02 12:09:26;;;;;;;30.80;20.80;;;8.40;92.00;;;;;;5081544;28;20037;-79
2022/03/02 12:12:06;;;;;;;28.88;19.42;;;8.50;55.90;;;;;;5079826;28;20037;-78
2022/03/02 12:14:42;;;;;;;33.20;19.45;;;8.60;57.30;;;;;;5078957;28;20055;-80
2022/03/02 12:17:18;;;;;;;35.13;20.52;;;8.40;99.90;;;;;;5081211;28;20399;-78
2022/03/02 12:19:48;;;;;;;33.53;21.95;;;8.20;56.20;;;;;;5062838;28;20048;-78
2022/03/02 12:22:17;;;;;;;31.15;21.10;;;8.00;47.90;;;;;;5062111;28;20506;-77
2022/03/02 12:24:47;;;;;;;26.88;17.55;;;8.00;14.80;;;;;;5058267;28;20044;-77
2022/03/02 12:27:15;;;;;;;29.20;18.48;;;7.70;57.60;;;;;;5058476;28;20045;-78
2022/03/02 12:29:52;;;;;;;37.17;19.73;;;7.50;44.00;;;;;;5057657;28;20503;-79
2022/03/02 12:32:21;;;;;;;27.10;18.55;;;7.50;8.20;;;;;;5044125;28;20496;-79
2022/03/02 12:34:51;;;;;;;34.78;19.77;;;7.50;1.00;;;;;;5082896;28;20052;-78
2022/03/02 12:37:20;;;;;;;32.15;20.20;;;7.50;25.20;;;;;;5068797;28;20110;-78
2022/03/02 12:39:49;;;;;;;27.73;17.52;;;7.50;7.00;;;;;;5069972;28;20040;-78
2022/03/02 12:42:17;;;;;;;30.20;17.05;;;7.40;1.00;;;;;;5066941;28;20048;-77
2022/03/02 12:44:48;;;;;;;28.73;17.90;;;7.20;1.00;;;;;;5064434;28;20072;-78